EPKT

Katowice International Airport

Katowice, Poland
METAR EPKT 222130Z VRB02KT CAVOK 06/00 Q1015
Observed Flight Rules
Apr-22 @ 21:30 UTC (13 minutes ago) Visual Flight Rules
Wind Visibility Clouds
Variable at 2 knots 10,000+ meters
  • Clear skies
Temperatures Readings
Current 6°C / 43°F
Dewpoint 0°C / 32°F
Humidity 66%
Altimeter 29.97" Hg
Pressure 1015 hPa
Elevation 284
METAR EPKT 222130Z VRB02KT CAVOK 06/00 Q1015
Observed Flight Rules
Apr-22 @ 21:30 UTC
(13 minutes ago)
VFR
Wind Visibility
Variable at 2 knots 10,000+ meters
Clouds
  • Clear skies
Temperature Dewpoint
6°C / 43°F 0°C / 32°F
Humidity Altimeter Pressure
66% 29.97" Hg 1015 hPa